createdAt,value
2018-09-09T00:00:25.906Z,15.00
2018-09-09T00:00:59.740Z,15.00
2018-09-09T00:01:33.618Z,15.00
2018-09-09T00:02:07.486Z,15.00
2018-09-09T00:02:41.344Z,15.00
2018-09-09T00:03:15.180Z,15.00
2018-09-09T00:03:49.067Z,15.00
2018-09-09T00:04:22.948Z,15.00
2018-09-09T00:04:56.801Z,15.00
2018-09-09T00:05:30.668Z,15.00
2018-09-09T00:06:04.852Z,15.00
2018-09-09T00:06:38.721Z,15.00
2018-09-09T00:07:12.599Z,15.00
2018-09-09T00:07:46.441Z,15.00
2018-09-09T00:08:20.318Z,15.00
2018-09-09T00:08:54.154Z,15.00
2018-09-09T00:09:33.361Z,15.00
2018-09-09T00:10:07.591Z,15.00
2018-09-09T00:10:41.806Z,15.10
2018-09-09T00:11:15.672Z,15.00
2018-09-09T00:11:49.492Z,15.00
2018-09-09T00:12:23.348Z,15.00
2018-09-09T00:12:57.538Z,15.00
2018-09-09T00:13:31.416Z,15.10
2018-09-09T00:14:05.292Z,15.00
2018-09-09T00:14:39.172Z,15.10
2018-09-09T00:15:13.386Z,15.10
2018-09-09T00:15:47.255Z,15.10
2018-09-09T00:16:21.133Z,15.10
2018-09-09T00:16:54.993Z,15.10
2018-09-09T00:17:28.822Z,15.10
2018-09-09T00:18:02.666Z,15.10
2018-09-09T00:18:36.836Z,15.10
2018-09-09T00:19:10.708Z,15.10
2018-09-09T00:19:44.590Z,15.10
2018-09-09T00:20:18.806Z,15.10
2018-09-09T00:20:52.664Z,15.10
2018-09-09T00:21:26.519Z,15.10
2018-09-09T00:22:00.389Z,15.10
2018-09-09T00:22:34.209Z,15.10
2018-09-09T00:23:08.094Z,15.10
2018-09-09T00:23:41.942Z,15.10
2018-09-09T00:24:15.775Z,15.10
2018-09-09T00:24:49.694Z,15.10
2018-09-09T00:25:23.570Z,15.10
2018-09-09T00:25:57.418Z,15.10
2018-09-09T00:26:31.249Z,15.10
2018-09-09T00:27:05.774Z,15.10
2018-09-09T00:27:39.957Z,15.10
2018-09-09T00:28:13.790Z,15.10
2018-09-09T00:28:47.691Z,15.10
2018-09-09T00:29:21.525Z,15.10
2018-09-09T00:29:55.394Z,15.10
2018-09-09T00:30:29.967Z,15.10
2018-09-09T00:31:04.162Z,15.10
2018-09-09T00:31:38.358Z,15.10
2018-09-09T00:32:12.190Z,15.10
2018-09-09T00:32:46.022Z,15.10
2018-09-09T00:33:19.885Z,15.10
2018-09-09T00:33:53.752Z,15.10
2018-09-09T00:34:27.600Z,15.10
2018-09-09T00:35:01.442Z,15.10
2018-09-09T00:35:35.347Z,15.10
2018-09-09T00:36:09.184Z,15.10
2018-09-09T00:36:43.122Z,15.10
2018-09-09T00:37:16.993Z,15.10
2018-09-09T00:37:50.840Z,15.10
2018-09-09T00:38:25.053Z,15.10
2018-09-09T00:38:58.898Z,15.10
2018-09-09T00:39:32.750Z,15.10
2018-09-09T00:40:06.597Z,15.10
2018-09-09T00:40:40.804Z,15.10
2018-09-09T00:41:15.002Z,15.10
2018-09-09T00:41:49.172Z,15.10
2018-09-09T00:42:23.084Z,15.00
2018-09-09T00:42:56.993Z,15.10
2018-09-09T00:43:30.838Z,15.10
2018-09-09T00:44:04.680Z,15.10
2018-09-09T00:44:38.553Z,15.10
2018-09-09T00:45:12.410Z,15.00
2018-09-09T00:45:46.268Z,15.00
2018-09-09T00:46:20.474Z,15.00
2018-09-09T00:46:54.330Z,15.00
2018-09-09T00:47:28.482Z,15.00
2018-09-09T00:48:02.354Z,15.00
2018-09-09T00:48:36.187Z,15.00
2018-09-09T00:49:15.386Z,15.00
2018-09-09T00:49:54.647Z,15.00
2018-09-09T00:50:33.996Z,15.00
2018-09-09T00:51:13.470Z,15.00
2018-09-09T00:51:53.136Z,14.90
2018-09-09T00:52:32.217Z,15.00
2018-09-09T00:53:12.647Z,15.00
2018-09-09T00:53:47.770Z,14.90
2018-09-09T00:54:21.629Z,14.90
2018-09-09T00:54:55.472Z,14.90
2018-09-09T00:55:29.284Z,14.90
2018-09-09T00:56:03.467Z,14.90
2018-09-09T00:56:37.664Z,14.90
2018-09-09T00:57:11.520Z,14.90
2018-09-09T00:57:45.376Z,14.90
2018-09-09T00:58:19.560Z,14.90
2018-09-09T00:58:53.429Z,14.90
2018-09-09T00:59:27.292Z,14.90
2018-09-09T01:00:01.120Z,14.90
2018-09-09T01:00:40.504Z,14.90
2018-09-09T01:01:15.568Z,14.90
2018-09-09T01:01:49.422Z,14.90
2018-09-09T01:02:23.268Z,14.90
2018-09-09T01:02:57.188Z,14.90
2018-09-09T01:03:30.988Z,14.90
2018-09-09T01:04:04.828Z,14.90
2018-09-09T01:04:38.714Z,14.90
2018-09-09T01:05:12.614Z,14.90
2018-09-09T01:05:46.682Z,14.90
2018-09-09T01:06:20.525Z,14.90
2018-09-09T01:06:54.716Z,14.90
2018-09-09T01:07:28.561Z,14.90
2018-09-09T01:08:02.378Z,14.90
2018-09-09T01:08:36.218Z,14.90
2018-09-09T01:09:11.518Z,14.90
2018-09-09T01:09:45.349Z,14.90
2018-09-09T01:10:19.209Z,14.90
2018-09-09T01:10:53.041Z,14.90
2018-09-09T01:11:27.011Z,14.90
2018-09-09T01:12:01.792Z,14.90
2018-09-09T01:12:35.665Z,14.90
2018-09-09T01:13:09.539Z,14.90
2018-09-09T01:13:43.395Z,14.90
2018-09-09T01:14:17.600Z,14.90
2018-09-09T01:14:51.450Z,14.90
2018-09-09T01:15:25.302Z,14.90
2018-09-09T01:15:59.580Z,14.90
2018-09-09T01:16:33.785Z,14.90
2018-09-09T01:17:08.312Z,14.90
2018-09-09T01:17:42.151Z,14.90
2018-09-09T01:18:56.502Z,14.90
2018-09-09T01:19:30.693Z,14.80
2018-09-09T01:20:04.550Z,14.90
2018-09-09T01:20:38.691Z,14.80
2018-09-09T01:21:12.897Z,14.80
2018-09-09T01:21:46.740Z,14.90
2018-09-09T01:22:20.614Z,14.90
2018-09-09T01:22:54.450Z,14.80
2018-09-09T01:23:28.298Z,14.80
2018-09-09T01:24:02.447Z,14.80
2018-09-09T01:24:36.279Z,14.80
2018-09-09T01:25:10.190Z,14.80
2018-09-09T01:25:44.010Z,14.80
2018-09-09T01:26:18.209Z,14.80
2018-09-09T01:26:52.606Z,14.80
2018-09-09T01:27:26.456Z,14.80
2018-09-09T01:28:00.281Z,14.80
2018-09-09T01:28:34.120Z,14.80
2018-09-09T01:29:07.981Z,14.80
2018-09-09T01:29:41.804Z,14.80
2018-09-09T01:30:16.282Z,14.80
2018-09-09T01:30:50.094Z,14.70
2018-09-09T01:31:23.952Z,14.80
2018-09-09T01:31:57.762Z,14.80
2018-09-09T01:32:31.576Z,14.70
2018-09-09T01:33:05.740Z,14.80
2018-09-09T01:33:39.582Z,14.70
2018-09-09T01:34:13.424Z,14.70
2018-09-09T01:34:47.273Z,14.80
2018-09-09T01:35:21.109Z,14.70
2018-09-09T01:35:55.252Z,14.70
2018-09-09T01:36:29.105Z,14.70
2018-09-09T01:37:03.619Z,14.70
2018-09-09T01:37:37.464Z,14.80
2018-09-09T01:38:11.630Z,14.70
2018-09-09T01:38:45.438Z,14.70
2018-09-09T01:39:19.295Z,14.80
2018-09-09T01:39:53.106Z,14.70
2018-09-09T01:40:26.988Z,14.70
2018-09-09T01:41:01.159Z,14.70
2018-09-09T01:41:35.040Z,14.70
2018-09-09T01:42:08.874Z,14.70
2018-09-09T01:42:42.700Z,14.70
2018-09-09T01:43:16.517Z,14.70
2018-09-09T01:43:50.343Z,14.70
2018-09-09T01:44:24.190Z,14.70
2018-09-09T01:44:58.389Z,14.70
2018-09-09T01:45:32.258Z,14.70
2018-09-09T01:46:06.151Z,14.70
2018-09-09T01:46:40.370Z,14.70
2018-09-09T01:47:14.229Z,14.70
2018-09-09T01:47:48.099Z,14.60
2018-09-09T01:48:21.987Z,14.70
2018-09-09T01:48:55.825Z,14.70
2018-09-09T01:49:29.684Z,14.60
2018-09-09T01:50:03.546Z,14.60
2018-09-09T01:50:37.428Z,14.60
2018-09-09T01:51:11.244Z,14.60
2018-09-09T01:51:45.146Z,14.60
2018-09-09T01:52:19.010Z,14.60
2018-09-09T01:52:52.882Z,14.60
2018-09-09T01:53:26.742Z,14.60
2018-09-09T01:54:00.589Z,14.60
2018-09-09T01:54:34.463Z,14.60
2018-09-09T01:55:08.361Z,14.60
2018-09-09T01:55:42.217Z,14.60
2018-09-09T01:56:16.103Z,14.60
2018-09-09T01:56:50.331Z,14.60
2018-09-09T01:57:24.178Z,14.60
2018-09-09T01:57:58.060Z,14.50
2018-09-09T01:58:31.920Z,14.60
2018-09-09T01:59:09.033Z,14.50
2018-09-09T01:59:43.218Z,14.50
2018-09-09T02:00:17.094Z,14.50
2018-09-09T02:00:51.303Z,14.50
2018-09-09T02:01:25.494Z,14.50
2018-09-09T02:01:59.395Z,14.50
2018-09-09T02:02:33.251Z,14.50
2018-09-09T02:03:07.467Z,14.50
2018-09-09T02:03:41.301Z,14.50
2018-09-09T02:04:15.150Z,14.50
2018-09-09T02:04:49.012Z,14.50
2018-09-09T02:05:22.889Z,14.50
2018-09-09T02:05:56.782Z,14.50
2018-09-09T02:06:30.993Z,14.50
2018-09-09T02:07:05.186Z,14.50
2018-09-09T02:07:39.048Z,14.50
2018-09-09T02:08:12.904Z,14.50
2018-09-09T02:08:46.802Z,14.50
2018-09-09T02:09:20.630Z,14.50
2018-09-09T02:09:58.316Z,14.50
2018-09-09T02:10:32.146Z,14.50
2018-09-09T02:11:06.350Z,14.50
2018-09-09T02:11:40.214Z,14.50
2018-09-09T02:12:14.058Z,14.50
2018-09-09T02:12:47.892Z,14.50
2018-09-09T02:13:21.743Z,14.50
2018-09-09T02:13:55.647Z,14.50
2018-09-09T02:14:29.499Z,14.50
2018-09-09T02:15:04.004Z,14.50
2018-09-09T02:15:37.836Z,14.50
2018-09-09T02:16:11.700Z,14.50
2018-09-09T02:16:45.539Z,14.50
2018-09-09T02:17:19.466Z,14.50
2018-09-09T02:17:53.325Z,14.50
2018-09-09T02:18:27.855Z,14.50
2018-09-09T02:19:01.785Z,14.50
2018-09-09T02:19:35.651Z,14.50
2018-09-09T02:20:09.834Z,14.50
2018-09-09T02:20:43.674Z,14.50
2018-09-09T02:21:17.531Z,14.50
2018-09-09T02:21:51.806Z,14.50
2018-09-09T02:22:25.700Z,14.50
2018-09-09T02:22:59.909Z,14.60
2018-09-09T02:23:33.781Z,14.60
2018-09-09T02:24:07.654Z,14.50
2018-09-09T02:24:41.518Z,14.50
2018-09-09T02:25:15.714Z,14.60
2018-09-09T02:25:49.571Z,14.50
2018-09-09T02:26:23.408Z,14.60
2018-09-09T02:26:57.262Z,14.60
2018-09-09T02:27:31.465Z,14.60
2018-09-09T02:28:05.690Z,14.60
2018-09-09T02:28:39.530Z,14.60
2018-09-09T02:29:13.602Z,14.60
2018-09-09T02:29:47.464Z,14.60
2018-09-09T02:30:21.674Z,14.60
2018-09-09T02:30:55.516Z,14.60
2018-09-09T02:31:29.408Z,14.60
2018-09-09T02:32:03.270Z,14.60
2018-09-09T02:32:37.157Z,14.60
2018-09-09T02:33:11.362Z,14.60
2018-09-09T02:33:45.230Z,14.60
2018-09-09T02:34:19.102Z,14.60
2018-09-09T02:34:52.951Z,14.60
2018-09-09T02:35:27.219Z,14.60
2018-09-09T02:36:01.086Z,14.60
2018-09-09T02:36:34.980Z,14.60
2018-09-09T02:37:08.843Z,14.60
2018-09-09T02:37:42.724Z,14.60
2018-09-09T02:38:16.600Z,14.60
2018-09-09T02:38:50.485Z,14.60
2018-09-09T02:39:24.339Z,14.60
2018-09-09T02:39:58.212Z,14.60
2018-09-09T02:40:32.054Z,14.60
2018-09-09T02:41:06.380Z,14.60
2018-09-09T02:41:41.007Z,14.60
2018-09-09T02:42:14.952Z,14.70
2018-09-09T02:42:48.867Z,14.60
2018-09-09T02:43:22.728Z,14.60
2018-09-09T02:43:56.584Z,14.60
2018-09-09T02:44:30.409Z,14.60
2018-09-09T02:45:04.309Z,14.60
2018-09-09T02:45:38.230Z,14.60
2018-09-09T02:46:12.290Z,14.60
2018-09-09T02:46:46.144Z,14.60
2018-09-09T02:47:20.002Z,14.60
2018-09-09T02:47:53.986Z,14.60
2018-09-09T02:48:27.866Z,14.60
2018-09-09T02:49:01.804Z,14.60
2018-09-09T02:49:35.734Z,14.60
2018-09-09T02:50:09.579Z,14.60
2018-09-09T02:50:43.438Z,14.60
2018-09-09T02:51:17.311Z,14.50
2018-09-09T02:51:51.520Z,14.60
2018-09-09T02:52:26.344Z,14.50
2018-09-09T02:53:00.262Z,14.60
2018-09-09T02:53:34.145Z,14.60
2018-09-09T02:54:07.990Z,14.50
2018-09-09T02:54:41.862Z,14.50
2018-09-09T02:55:15.679Z,14.50
2018-09-09T02:55:49.504Z,14.50
2018-09-09T02:56:23.418Z,14.50
2018-09-09T02:56:57.274Z,14.50
2018-09-09T02:57:31.106Z,14.50
2018-09-09T02:58:05.304Z,14.50
2018-09-09T02:58:39.178Z,14.50
2018-09-09T02:59:13.016Z,14.50
2018-09-09T02:59:46.890Z,14.50
2018-09-09T03:00:20.838Z,14.50
2018-09-09T03:00:54.692Z,14.50
2018-09-09T03:01:28.511Z,14.50
2018-09-09T03:02:02.366Z,14.40
2018-09-09T03:02:36.243Z,14.40
2018-09-09T03:03:10.308Z,14.40
2018-09-09T03:03:44.174Z,14.40
2018-09-09T03:04:18.010Z,14.40
2018-09-09T03:04:51.877Z,14.40
2018-09-09T03:05:25.748Z,14.40
2018-09-09T03:05:59.965Z,14.40
2018-09-09T03:06:34.071Z,14.40
2018-09-09T03:07:07.962Z,14.40
2018-09-09T03:07:41.838Z,14.40
2018-09-09T03:08:15.722Z,14.30
2018-09-09T03:08:49.559Z,14.30
2018-09-09T03:09:23.405Z,14.30
2018-09-09T03:09:57.548Z,14.30
2018-09-09T03:10:31.476Z,14.30
2018-09-09T03:11:10.768Z,14.30
2018-09-09T03:11:44.642Z,14.30
2018-09-09T03:12:18.490Z,14.30
2018-09-09T03:12:52.351Z,14.20
2018-09-09T03:13:26.234Z,14.20
2018-09-09T03:14:00.082Z,14.20
2018-09-09T03:14:33.990Z,14.20
2018-09-09T03:15:08.188Z,14.20
2018-09-09T03:15:42.066Z,14.20
2018-09-09T03:16:15.949Z,14.20
2018-09-09T03:16:49.794Z,14.20
2018-09-09T03:17:23.633Z,14.20
2018-09-09T03:17:57.484Z,14.20
2018-09-09T03:18:31.361Z,14.10
2018-09-09T03:19:05.232Z,14.10
2018-09-09T03:19:39.078Z,14.10
2018-09-09T03:20:12.966Z,14.10
2018-09-09T03:20:46.818Z,14.10
2018-09-09T03:21:20.656Z,14.10
2018-09-09T03:21:54.514Z,14.10
2018-09-09T03:22:29.022Z,14.10
2018-09-09T03:23:02.847Z,14.10
2018-09-09T03:23:36.736Z,14.10
2018-09-09T03:24:10.565Z,14.00
2018-09-09T03:24:44.443Z,14.00
2018-09-09T03:25:18.592Z,14.00
2018-09-09T03:25:52.828Z,14.00
2018-09-09T03:26:26.694Z,14.00
2018-09-09T03:27:00.584Z,14.00
2018-09-09T03:27:34.482Z,14.00
2018-09-09T03:28:08.698Z,14.00
2018-09-09T03:28:42.659Z,14.00
2018-09-09T03:29:16.726Z,14.00
2018-09-09T03:29:50.588Z,14.00
2018-09-09T03:30:24.455Z,14.00
2018-09-09T03:30:58.322Z,14.00
2018-09-09T03:31:32.189Z,14.00
2018-09-09T03:32:06.068Z,13.90
2018-09-09T03:32:39.934Z,13.90
2018-09-09T03:33:13.782Z,13.90
2018-09-09T03:33:47.721Z,13.90
2018-09-09T03:34:21.751Z,13.90
2018-09-09T03:34:55.570Z,13.90
2018-09-09T03:35:29.585Z,13.90
2018-09-09T03:36:03.439Z,13.90
2018-09-09T03:36:37.318Z,13.90
2018-09-09T03:37:11.530Z,13.90
2018-09-09T03:37:45.454Z,13.80
2018-09-09T03:38:19.500Z,13.80
2018-09-09T03:38:53.386Z,13.80
2018-09-09T03:39:27.264Z,13.80
2018-09-09T03:40:01.110Z,13.80
2018-09-09T03:40:35.011Z,13.80
2018-09-09T03:41:09.517Z,13.80
2018-09-09T03:41:43.412Z,13.80
2018-09-09T03:42:17.264Z,13.70
2018-09-09T03:42:51.442Z,13.70
2018-09-09T03:43:25.292Z,13.70
2018-09-09T03:43:59.164Z,13.70
2018-09-09T03:44:33.364Z,13.70
2018-09-09T03:45:07.655Z,13.70
2018-09-09T03:45:41.891Z,13.70
2018-09-09T03:46:15.762Z,13.70
2018-09-09T03:46:49.976Z,13.60
2018-09-09T03:47:23.852Z,13.60
2018-09-09T03:47:57.734Z,13.60
2018-09-09T03:48:31.955Z,13.60
2018-09-09T03:49:06.228Z,13.60
2018-09-09T03:49:40.106Z,13.60
2018-09-09T03:50:14.316Z,13.60
2018-09-09T03:50:48.220Z,13.60
2018-09-09T03:51:22.285Z,13.60
2018-09-09T03:51:56.177Z,13.50
2018-09-09T03:52:30.053Z,13.50
2018-09-09T03:53:04.226Z,13.50
2018-09-09T03:53:38.098Z,13.50
2018-09-09T03:54:11.984Z,13.50
2018-09-09T03:54:45.828Z,13.50
2018-09-09T03:55:19.679Z,13.50
2018-09-09T03:55:53.560Z,13.50
2018-09-09T03:56:27.407Z,13.40
2018-09-09T03:57:01.294Z,13.50
2018-09-09T03:57:35.500Z,13.40
2018-09-09T03:58:09.394Z,13.40
2018-09-09T03:58:43.258Z,13.40
2018-09-09T03:59:17.186Z,13.40
2018-09-09T03:59:51.007Z,13.40
2018-09-09T04:00:24.886Z,13.40
2018-09-09T04:00:58.725Z,13.40
2018-09-09T04:01:32.606Z,13.40
2018-09-09T04:02:06.933Z,13.40
2018-09-09T04:02:40.772Z,13.40
2018-09-09T04:03:14.994Z,13.30
2018-09-09T04:03:49.192Z,13.30
2018-09-09T04:04:23.430Z,13.30
2018-09-09T04:04:57.307Z,13.30
2018-09-09T04:05:31.164Z,13.30
2018-09-09T04:06:05.552Z,13.30
2018-09-09T04:06:39.426Z,13.30
2018-09-09T04:07:13.275Z,13.30
2018-09-09T04:07:47.531Z,13.30
2018-09-09T04:08:21.717Z,13.30
2018-09-09T04:08:55.916Z,13.30
2018-09-09T04:09:29.792Z,13.30
2018-09-09T04:10:03.710Z,13.20
2018-09-09T04:10:38.065Z,13.20
2018-09-09T04:11:12.242Z,13.20
2018-09-09T04:11:46.130Z,13.20
2018-09-09T04:12:19.998Z,13.20
2018-09-09T04:12:53.848Z,13.20
2018-09-09T04:13:27.728Z,13.20
2018-09-09T04:14:01.609Z,13.20
2018-09-09T04:14:35.874Z,13.20
2018-09-09T04:15:10.149Z,13.20
2018-09-09T04:15:44.004Z,13.20
2018-09-09T04:16:17.870Z,13.10
2018-09-09T04:16:52.068Z,13.10
2018-09-09T04:17:25.949Z,13.10
2018-09-09T04:18:00.125Z,13.10
2018-09-09T04:18:34.014Z,13.10
2018-09-09T04:19:07.849Z,13.10
2018-09-09T04:19:42.093Z,13.10
2018-09-09T04:20:15.920Z,13.10
2018-09-09T04:20:50.134Z,13.10
2018-09-09T04:21:24.319Z,13.10
2018-09-09T04:21:58.157Z,13.10
2018-09-09T04:22:32.381Z,13.10
2018-09-09T04:23:06.241Z,13.10
2018-09-09T04:23:40.199Z,13.10
2018-09-09T04:24:14.087Z,13.00
2018-09-09T04:24:48.010Z,13.00
2018-09-09T04:25:21.869Z,13.00
2018-09-09T04:25:55.721Z,13.00
2018-09-09T04:26:29.611Z,13.00
2018-09-09T04:27:03.815Z,13.00
2018-09-09T04:27:37.675Z,13.00
2018-09-09T04:28:11.572Z,13.00
2018-09-09T04:28:45.400Z,13.00
2018-09-09T04:29:19.580Z,13.00
2018-09-09T04:29:53.471Z,13.00
2018-09-09T04:30:27.339Z,13.00
2018-09-09T04:31:01.600Z,13.00
2018-09-09T04:31:35.651Z,13.00
2018-09-09T04:32:09.865Z,13.00
2018-09-09T04:32:44.069Z,13.00
2018-09-09T04:33:17.901Z,13.00
2018-09-09T04:33:51.785Z,13.00
2018-09-09T04:34:25.611Z,13.00
2018-09-09T04:34:59.832Z,13.00
2018-09-09T04:35:33.737Z,13.00
2018-09-09T04:36:07.603Z,13.00
2018-09-09T04:36:41.906Z,13.00
2018-09-09T04:37:15.853Z,13.00
2018-09-09T04:37:49.699Z,13.00
2018-09-09T04:38:23.588Z,13.00
2018-09-09T04:38:57.419Z,13.00
2018-09-09T04:39:31.629Z,13.00
2018-09-09T04:40:05.877Z,12.90
2018-09-09T04:40:40.203Z,13.00
2018-09-09T04:41:14.381Z,13.00
2018-09-09T04:41:48.252Z,13.00
2018-09-09T04:42:22.086Z,12.90
2018-09-09T04:42:55.931Z,13.00
2018-09-09T04:43:30.095Z,12.90
2018-09-09T04:44:04.275Z,12.90
2018-09-09T04:44:38.105Z,12.90
2018-09-09T04:45:12.307Z,12.90
2018-09-09T04:45:46.513Z,12.90
2018-09-09T04:46:20.426Z,12.90
2018-09-09T04:46:54.417Z,12.90
2018-09-09T04:47:28.233Z,13.00
2018-09-09T04:48:02.085Z,13.00
2018-09-09T04:48:35.984Z,13.00
2018-09-09T04:49:10.457Z,13.00
2018-09-09T04:49:44.324Z,13.00
2018-09-09T04:50:18.193Z,13.00
2018-09-09T04:50:52.045Z,13.00
2018-09-09T04:51:25.888Z,13.00
2018-09-09T04:51:59.723Z,13.00
2018-09-09T04:52:33.568Z,13.00
2018-09-09T04:53:07.445Z,13.00
2018-09-09T04:53:41.299Z,13.00
2018-09-09T04:54:15.129Z,13.10
2018-09-09T04:54:49.309Z,13.10
2018-09-09T04:55:23.533Z,13.10
2018-09-09T04:55:57.392Z,13.10
2018-09-09T04:56:31.630Z,13.20
2018-09-09T04:57:05.597Z,13.20
2018-09-09T04:57:39.469Z,13.20
2018-09-09T04:58:13.320Z,13.20
2018-09-09T04:58:47.467Z,13.30
2018-09-09T04:59:21.305Z,13.30
2018-09-09T04:59:55.225Z,13.30
2018-09-09T05:00:29.083Z,13.30
2018-09-09T05:01:02.957Z,13.30
2018-09-09T05:01:36.805Z,13.40
2018-09-09T05:02:10.732Z,13.40
2018-09-09T05:02:44.757Z,13.40
2018-09-09T05:03:18.640Z,13.40
2018-09-09T05:03:52.501Z,13.40
2018-09-09T05:04:26.382Z,13.50
2018-09-09T05:05:00.251Z,13.50
2018-09-09T05:05:34.119Z,13.50
2018-09-09T05:06:07.991Z,13.50
2018-09-09T05:06:41.817Z,13.50
2018-09-09T05:07:15.688Z,13.60
2018-09-09T05:07:49.923Z,13.60
2018-09-09T05:08:23.783Z,13.60
2018-09-09T05:08:58.025Z,13.60
2018-09-09T05:09:31.865Z,13.60
2018-09-09T05:10:06.187Z,13.70
2018-09-09T05:10:40.038Z,13.70
2018-09-09T05:11:14.283Z,13.70
2018-09-09T05:11:48.124Z,13.70
2018-09-09T05:12:21.972Z,13.70
2018-09-09T05:12:56.169Z,13.80
2018-09-09T05:13:30.001Z,13.70
2018-09-09T05:14:03.833Z,13.80
2018-09-09T05:14:37.665Z,13.80
2018-09-09T05:15:11.545Z,13.80
2018-09-09T05:15:45.453Z,13.80
2018-09-09T05:16:19.333Z,13.80
2018-09-09T05:16:53.163Z,13.90
2018-09-09T05:17:27.000Z,13.90
2018-09-09T05:19:03.945Z,13.90
2018-09-09T05:19:37.917Z,13.90
2018-09-09T05:20:12.135Z,13.90
2018-09-09T05:20:45.965Z,14.00
2018-09-09T05:21:19.886Z,14.00
2018-09-09T05:21:53.729Z,14.00
2018-09-09T05:22:27.581Z,14.00
2018-09-09T05:23:01.437Z,14.00
2018-09-09T05:23:35.475Z,14.00
2018-09-09T05:24:09.301Z,14.10
2018-09-09T05:24:43.122Z,14.00
2018-09-09T05:25:17.001Z,14.10
2018-09-09T05:28:44.310Z,14.10
2018-09-09T05:29:18.493Z,14.20
2018-09-09T05:29:52.643Z,14.20
2018-09-09T05:30:26.523Z,14.20
2018-09-09T05:31:00.605Z,14.20
2018-09-09T05:31:34.847Z,14.30
2018-09-09T05:32:08.681Z,14.30
2018-09-09T05:32:42.535Z,14.30
2018-09-09T05:33:16.383Z,14.30
2018-09-09T05:33:50.406Z,14.30
2018-09-09T05:34:24.628Z,14.40
2018-09-09T05:34:58.473Z,14.40
2018-09-09T05:35:32.357Z,14.40
2018-09-09T05:36:06.556Z,14.40
2018-09-09T05:36:40.409Z,14.40
2018-09-09T05:37:14.577Z,14.50
2018-09-09T05:37:48.431Z,14.50
2018-09-09T05:38:22.284Z,14.50
2018-09-09T05:38:56.147Z,14.50
2018-09-09T05:39:30.038Z,14.50
2018-09-09T05:40:04.243Z,14.50
2018-09-09T05:41:18.653Z,14.50
2018-09-09T05:41:52.489Z,14.60
2018-09-09T05:42:26.507Z,14.60
2018-09-09T05:43:00.538Z,14.60
2018-09-09T05:43:34.399Z,14.60
2018-09-09T05:44:08.245Z,14.60
2018-09-09T05:44:42.170Z,14.60
2018-09-09T05:45:16.173Z,14.60
2018-09-09T05:45:50.055Z,14.70
2018-09-09T05:46:23.902Z,14.70
2018-09-09T05:46:57.741Z,14.70
2018-09-09T05:47:31.606Z,14.70
2018-09-09T05:48:05.485Z,14.70
2018-09-09T05:48:39.323Z,14.80
2018-09-09T05:49:13.511Z,14.80
2018-09-09T05:49:47.349Z,14.80
2018-09-09T05:50:21.213Z,14.90
2018-09-09T05:50:55.073Z,14.90
2018-09-09T05:51:28.919Z,14.90
2018-09-09T05:52:02.763Z,14.90
2018-09-09T05:52:36.633Z,15.00
2018-09-09T05:53:10.478Z,15.00
2018-09-09T05:53:44.717Z,15.00
2018-09-09T05:54:18.775Z,15.10
2018-09-09T05:54:52.639Z,15.10
2018-09-09T05:55:26.469Z,15.10
2018-09-09T05:56:00.377Z,15.20
2018-09-09T05:56:34.581Z,15.20
2018-09-09T05:57:08.433Z,15.20
2018-09-09T05:57:42.293Z,15.20
2018-09-09T05:58:16.120Z,15.30
2018-09-09T05:58:50.215Z,15.30
2018-09-09T05:59:24.067Z,15.30
2018-09-09T05:59:58.251Z,15.40
2018-09-09T06:00:32.139Z,15.40
2018-09-09T06:01:06.369Z,15.40
2018-09-09T06:01:40.274Z,15.40
2018-09-09T06:02:14.121Z,15.50
2018-09-09T06:02:47.949Z,15.50
2018-09-09T06:03:21.825Z,15.50
2018-09-09T06:03:55.673Z,15.50
2018-09-09T06:04:30.451Z,15.50
2018-09-09T06:05:04.484Z,15.60
2018-09-09T06:05:38.680Z,15.60
2018-09-09T06:06:12.759Z,15.60
2018-09-09T06:06:46.597Z,15.60
2018-09-09T06:07:20.478Z,15.60
2018-09-09T06:07:54.431Z,15.70
2018-09-09T06:08:28.295Z,15.70
2018-09-09T06:09:02.148Z,15.70
2018-09-09T06:09:35.999Z,15.70
2018-09-09T06:10:10.213Z,15.70
2018-09-09T06:10:44.086Z,15.80
2018-09-09T06:11:18.017Z,15.70
2018-09-09T06:11:52.209Z,15.80
2018-09-09T06:12:26.067Z,15.80
2018-09-09T06:13:00.643Z,15.80
2018-09-09T06:13:34.549Z,15.90
2018-09-09T06:14:08.763Z,15.90
2018-09-09T06:14:42.611Z,15.90
2018-09-09T06:15:16.500Z,15.90
2018-09-09T06:15:50.777Z,15.90
2018-09-09T06:16:24.690Z,15.90
2018-09-09T06:16:58.507Z,16.00
2018-09-09T06:17:32.359Z,16.00
2018-09-09T06:18:06.693Z,16.00
2018-09-09T06:18:40.567Z,16.00
2018-09-09T06:19:14.395Z,16.00
2018-09-09T06:19:48.254Z,16.00
2018-09-09T06:20:22.143Z,16.10
2018-09-09T06:20:56.001Z,16.10
2018-09-09T06:21:29.891Z,16.10
2018-09-09T06:22:03.735Z,16.10
2018-09-09T06:22:37.629Z,16.10
2018-09-09T06:23:11.495Z,16.10
2018-09-09T06:23:45.401Z,16.20
2018-09-09T06:24:19.243Z,16.20
2018-09-09T06:24:53.105Z,16.20
2018-09-09T06:25:27.213Z,16.20
2018-09-09T06:26:01.089Z,16.20
2018-09-09T06:26:35.035Z,16.20
2018-09-09T06:27:09.225Z,16.20
2018-09-09T06:27:43.079Z,16.30
2018-09-09T06:28:16.993Z,16.30
2018-09-09T06:28:51.121Z,16.30
2018-09-09T06:29:25.131Z,16.30
2018-09-09T06:29:58.997Z,16.30
2018-09-09T06:30:32.880Z,16.30
2018-09-09T06:31:06.749Z,16.30
2018-09-09T06:31:40.650Z,16.30
2018-09-09T06:32:14.488Z,16.30
2018-09-09T06:32:48.329Z,16.30
2018-09-09T06:33:22.187Z,16.30
2018-09-09T06:33:56.444Z,16.30
2018-09-09T06:34:30.417Z,16.30
2018-09-09T06:35:04.289Z,16.30
2018-09-09T06:35:38.297Z,16.20
2018-09-09T06:36:12.171Z,16.20
2018-09-09T06:36:46.062Z,16.20
2018-09-09T06:37:19.935Z,16.20
2018-09-09T06:37:53.803Z,16.20
2018-09-09T06:38:28.345Z,16.20
2018-09-09T06:39:02.273Z,16.20
2018-09-09T06:39:36.323Z,16.20
2018-09-09T06:40:10.479Z,16.20
2018-09-09T06:40:44.675Z,16.20
2018-09-09T06:41:18.541Z,16.20
2018-09-09T06:41:52.417Z,16.20
2018-09-09T06:42:26.281Z,16.20
2018-09-09T06:43:00.141Z,16.20
2018-09-09T06:43:34.019Z,16.20
2018-09-09T06:44:08.069Z,16.20
2018-09-09T06:44:42.277Z,16.20
2018-09-09T06:45:16.167Z,16.20
2018-09-09T06:45:50.110Z,16.20
2018-09-09T06:46:24.028Z,16.30
2018-09-09T06:46:58.101Z,16.30
2018-09-09T06:47:31.985Z,16.30
2018-09-09T06:48:06.193Z,16.40
2018-09-09T06:48:40.073Z,16.40
2018-09-09T06:49:14.269Z,16.40
2018-09-09T06:49:48.136Z,16.40
2018-09-09T06:50:21.969Z,16.50
2018-09-09T06:50:56.051Z,16.50
2018-09-09T06:51:29.883Z,16.50
2018-09-09T06:52:04.101Z,16.60
2018-09-09T06:52:37.957Z,16.60
2018-09-09T06:53:12.155Z,16.60
2018-09-09T06:53:46.013Z,16.70
2018-09-09T06:54:19.828Z,16.70
2018-09-09T06:54:53.681Z,16.70
2018-09-09T06:55:27.589Z,16.80
2018-09-09T06:56:01.628Z,16.80
2018-09-09T06:56:35.507Z,16.80
2018-09-09T06:57:09.397Z,16.90
2018-09-09T06:57:43.811Z,16.90
2018-09-09T06:58:17.669Z,16.90
2018-09-09T06:58:51.800Z,16.90
2018-09-09T06:59:26.016Z,16.90
2018-09-09T07:00:00.240Z,17.00
2018-09-09T07:00:34.124Z,16.90
2018-09-09T07:01:07.991Z,16.90
2018-09-09T07:01:41.853Z,17.00
2018-09-09T07:02:15.796Z,17.00
2018-09-09T07:02:49.850Z,17.00
2018-09-09T07:03:23.694Z,17.00
2018-09-09T07:03:57.559Z,17.00
2018-09-09T07:04:31.418Z,17.10
2018-09-09T07:05:05.276Z,17.10
2018-09-09T07:05:39.354Z,17.10
2018-09-09T07:06:13.529Z,17.20
2018-09-09T07:06:47.714Z,17.20
2018-09-09T07:07:21.596Z,17.20
2018-09-09T07:07:55.635Z,17.20
2018-09-09T07:08:29.502Z,17.30
2018-09-09T07:09:03.687Z,17.30
2018-09-09T07:09:37.884Z,17.30
2018-09-09T07:10:11.757Z,17.30
2018-09-09T07:10:45.781Z,17.40
2018-09-09T07:11:19.911Z,17.30
2018-09-09T07:11:54.527Z,17.40
2018-09-09T07:12:29.288Z,17.40
2018-09-09T07:13:03.172Z,17.40
2018-09-09T07:13:37.037Z,17.40
2018-09-09T07:14:10.902Z,17.50
2018-09-09T07:14:44.779Z,17.40
2018-09-09T07:15:18.630Z,17.50
2018-09-09T07:15:52.494Z,17.50
2018-09-09T07:16:26.333Z,17.50
2018-09-09T07:17:00.212Z,17.50
2018-09-09T07:17:34.254Z,17.50
2018-09-09T07:18:08.447Z,17.50
2018-09-09T07:18:42.293Z,17.50
2018-09-09T07:19:16.199Z,17.60
2018-09-09T07:19:50.244Z,17.60
2018-09-09T07:20:24.596Z,17.60
2018-09-09T07:20:58.464Z,17.60
2018-09-09T07:21:32.635Z,17.60
2018-09-09T07:22:07.168Z,17.60
2018-09-09T07:22:41.082Z,17.60
2018-09-09T07:23:15.214Z,17.60
2018-09-09T07:23:49.397Z,17.60